Time;durP1;ratioP1;P1;durP2;ratioP2;P2;SDS_P1;SDS_P2;PMS_P1;PMS_P2;Temp;Humidity;BMP_temperature;BMP_pressure;BME280_temperature;BME280_humidity;BME280_pressure;Samples;Min_cycle;Max_cycle;Signal;HPM_P1;HPM_P2
2022/10/06 04:22:48;;;;;;;6.95;3.13;;;;;;;15.62;100.00;101320.47;5109618;27;20388;-60
2022/10/06 04:25:14;;;;;;;4.25;2.65;;;;;;;15.62;100.00;101318.59;5108199;28;20126;-59
2022/10/06 04:27:40;;;;;;;3.88;2.45;;;;;;;15.65;100.00;101331.69;5091185;28;20130;-59
2022/10/06 04:30:10;;;;;;;4.65;3.28;;;;;;;15.65;100.00;101330.84;5107929;28;20036;-60
2022/10/06 04:32:36;;;;;;;5.20;3.35;;;;;;;15.71;100.00;101335.47;5108080;28;20089;-60
2022/10/06 04:35:02;;;;;;;6.38;2.75;;;;;;;15.70;100.00;101339.19;5108518;28;20040;-59
2022/10/06 04:37:27;;;;;;;6.57;3.13;;;;;;;15.76;100.00;101333.09;5108031;28;20470;-60
2022/10/06 04:39:53;;;;;;;6.00;3.88;;;;;;;15.77;100.00;101332.06;5107905;28;20545;-61
2022/10/06 04:42:18;;;;;;;5.80;3.00;;;;;;;15.76;100.00;101341.16;5107578;28;20063;-59
2022/10/06 04:44:44;;;;;;;6.75;2.88;;;;;;;15.78;100.00;101344.50;5107834;28;20119;-60
2022/10/06 04:47:09;;;;;;;5.10;2.60;;;;;;;15.79;100.00;101348.88;5107797;28;20040;-62
2022/10/06 04:49:35;;;;;;;5.68;3.17;;;;;;;15.79;100.00;101339.97;5107874;28;20115;-60
2022/10/06 04:52:01;;;;;;;6.75;3.60;;;;;;;15.78;100.00;101351.72;5107438;28;20060;-61
2022/10/06 04:54:30;;;;;;;9.23;3.22;;;;;;;15.79;100.00;101356.94;5107658;28;20050;-60
2022/10/06 04:56:57;;;;;;;4.82;3.38;;;;;;;15.78;100.00;101365.13;5107514;28;20122;-60
2022/10/06 05:00:21;;;;;;;4.13;2.20;;;;;;;15.78;100.00;101367.81;5107704;28;20040;-61
2022/10/06 05:02:11;;;;;;;6.95;2.60;;;;;;;15.73;100.00;101368.38;5107262;28;20400;-57
2022/10/06 05:04:38;;;;;;;4.53;3.10;;;;;;;15.76;100.00;101376.06;5109017;28;20036;-58
2022/10/06 05:07:04;;;;;;;4.43;3.28;;;;;;;15.76;100.00;101378.75;5107444;28;20044;-57
2022/10/06 05:09:30;;;;;;;4.47;3.03;;;;;;;15.71;100.00;101379.31;5107418;28;20527;-59
2022/10/06 05:11:56;;;;;;;4.15;2.72;;;;;;;15.70;100.00;101388.38;5106954;28;20028;-59
2022/10/06 05:14:21;;;;;;;6.00;2.75;;;;;;;15.68;100.00;101395.78;5107398;28;20035;-58
2022/10/06 05:16:48;;;;;;;6.17;2.70;;;;;;;15.66;100.00;101394.28;5107359;28;20047;-60
2022/10/06 05:19:14;;;;;;;5.55;2.90;;;;;;;15.67;100.00;101404.03;5107318;28;20032;-58
2022/10/06 05:21:40;;;;;;;5.05;2.85;;;;;;;15.63;100.00;101408.91;5106799;28;20040;-61
2022/10/06 05:24:08;;;;;;;4.55;2.55;;;;;;;15.62;100.00;101417.13;5107244;28;20123;-56
2022/10/06 05:26:35;;;;;;;5.70;3.08;;;;;;;15.59;100.00;101420.16;5106963;28;20119;-57
2022/10/06 05:29:03;;;;;;;6.47;2.88;;;;;;;15.57;100.00;101416.81;5107078;28;20032;-56
2022/10/06 05:31:31;;;;;;;4.22;2.28;;;;;;;15.58;100.00;101431.91;5106626;28;20034;-58
2022/10/06 05:33:58;;;;;;;6.05;2.80;;;;;;;15.56;100.00;101425.88;5094516;28;20042;-60
2022/10/06 05:36:32;;;;;;;5.22;2.47;;;;;;;15.56;100.00;101432.06;5093432;28;20088;-56
2022/10/06 05:38:59;;;;;;;5.63;3.60;;;;;;;15.55;100.00;101432.25;5093281;28;20043;-60
2022/10/06 05:41:27;;;;;;;;;;;;;;;15.52;100.00;101438.84;5093419;28;20043;-56
2022/10/06 05:43:57;;;;;;;4.57;2.30;;;;;;;15.51;100.00;101434.44;5093313;28;19916;-60
2022/10/06 05:46:24;;;;;;;;;;;;;;;15.51;100.00;101444.34;5093565;28;20043;-61
2022/10/06 05:48:54;;;;;;;4.45;2.10;;;;;;;15.48;100.00;101449.06;5093107;28;19912;-61
2022/10/06 05:51:24;;;;;;;4.07;2.70;;;;;;;15.45;100.00;101444.06;5092594;28;20024;-61
2022/10/06 05:53:49;;;;;;;3.60;2.10;;;;;;;15.44;100.00;101454.97;5092913;28;20120;-58
2022/10/06 05:56:19;;;;;;;4.18;2.10;;;;;;;15.44;100.00;101455.81;5092950;28;20028;-60
2022/10/06 05:58:47;;;;;;;7.88;2.42;;;;;;;15.43;100.00;101459.50;5093079;28;20069;-59
2022/10/06 06:01:24;;;;;;;4.18;2.17;;;;;;;15.39;100.00;101454.69;5092626;28;20032;-59
2022/10/06 06:03:58;;;;;;;5.38;2.13;;;;;;;15.39;100.00;101458.19;5092798;28;20032;-60
2022/10/06 06:06:27;;;;;;;3.60;2.35;;;;;;;15.40;100.00;101461.72;5092776;28;20134;-58
2022/10/06 06:09:08;;;;;;;4.50;2.03;;;;;;;15.39;99.46;101471.63;5092696;28;20035;-60
2022/10/06 06:11:38;;;;;;;3.05;1.58;;;;;;;15.39;98.23;101466.25;5092353;28;20056;-64
2022/10/06 06:14:06;;;;;;;3.47;1.85;;;;;;;15.36;97.40;101474.63;5092538;28;20039;-64
2022/10/06 06:16:32;;;;;;;4.05;2.17;;;;;;;15.36;98.05;101477.31;5093675;28;20035;-63
2022/10/06 06:18:59;;;;;;;4.28;1.63;;;;;;;15.38;97.45;101479.81;5092495;28;20036;-65
2022/10/06 06:21:26;;;;;;;3.83;1.80;;;;;;;15.36;97.56;101479.19;5092110;28;20039;-58
2022/10/06 06:23:52;;;;;;;3.42;1.65;;;;;;;15.35;97.31;101481.03;5092312;28;20035;-56
2022/10/06 06:26:29;;;;;;;2.63;1.77;;;;;;;15.38;96.74;101479.81;5093559;28;20138;-54
2022/10/06 06:29:06;;;;;;;4.10;2.05;;;;;;;15.38;96.77;101483.34;5092292;28;20493;-52
2022/10/06 06:31:40;;;;;;;2.97;1.42;;;;;;;15.35;97.35;101497.13;5087952;28;20094;-53
2022/10/06 06:34:06;;;;;;;2.63;1.83;;;;;;;15.37;96.78;101496.94;5107423;28;20024;-65
2022/10/06 06:36:39;;;;;;;2.00;1.80;;;;;;;15.34;96.90;101513.41;5092084;28;20089;-65
2022/10/06 06:39:10;;;;;;;2.33;1.60;;;;;;;15.33;96.04;101517.13;5075696;28;20035;-64
2022/10/06 06:41:39;;;;;;;6.78;2.38;;;;;;;15.36;96.90;101525.66;5091155;28;20039;-64
2022/10/06 06:44:12;;;;;;;1.88;1.40;;;;;;;15.35;96.81;101542.78;5091449;28;20488;-65
2022/10/06 06:46:45;;;;;;;4.00;1.65;;;;;;;15.34;97.29;101545.63;5092133;28;20497;-64
2022/10/06 06:49:15;;;;;;;2.72;1.80;;;;;;;15.32;97.14;101545.81;5091859;28;20488;-65
2022/10/06 06:51:48;;;;;;;2.45;1.50;;;;;;;15.33;97.43;101554.72;5091141;28;20044;-63
2022/10/06 06:54:17;;;;;;;2.03;1.63;;;;;;;15.33;96.63;101549.34;5091930;28;20119;-65
2022/10/06 06:56:45;;;;;;;3.92;1.80;;;;;;;15.32;96.99;101548.50;5091429;28;20077;-64
2022/10/06 06:59:12;;;;;;;2.13;1.58;;;;;;;15.32;96.01;101551.19;5091828;28;20036;-65
2022/10/06 07:01:45;;;;;;;3.65;1.65;;;;;;;15.35;95.94;101558.88;5090883;28;20074;-64
2022/10/06 07:04:13;;;;;;;4.55;1.55;;;;;;;15.31;95.89;101556.69;5091503;28;20031;-64
2022/10/06 07:06:45;;;;;;;2.95;1.55;;;;;;;15.38;95.87;101569.25;5091432;28;20040;-64
2022/10/06 07:09:10;;;;;;;2.92;1.63;;;;;;;15.21;95.05;101548.88;5091550;28;20036;-63
2022/10/06 07:11:38;;;;;;;2.75;1.48;;;;;;;15.41;94.52;101578.84;5090586;28;20044;-65
2022/10/06 07:14:11;;;;;;;3.55;1.48;;;;;;;15.41;95.15;101571.63;5091702;28;20419;-65
2022/10/06 07:25:10;;;;;;;1.80;1.33;;;;;;;15.42;92.32;101599.28;5091127;28;20096;-65
2022/10/06 07:27:42;;;;;;;5.47;1.10;;;;;;;15.47;92.25;101607.69;5090714;28;20405;-64
2022/10/06 07:30:18;;;;;;;2.67;0.95;;;;;;;15.47;92.08;101605.84;5090836;28;20044;-63
2022/10/06 07:32:46;;;;;;;4.25;1.15;;;;;;;15.48;92.21;101607.50;5090920;28;20084;-65
2022/10/06 07:35:12;;;;;;;4.95;1.25;;;;;;;15.49;91.79;101611.03;5091088;28;20071;-64
2022/10/06 07:37:38;;;;;;;1.85;0.98;;;;;;;15.53;92.49;101616.91;5090817;28;20146;-65
2022/10/06 07:40:05;;;;;;;2.38;1.08;;;;;;;15.54;92.39;101614.03;5090550;28;20039;-65
2022/10/06 07:42:47;;;;;;;2.35;1.17;;;;;;;15.57;90.86;101613.69;5090416;28;20032;-65
2022/10/06 07:45:37;;;;;;;3.45;1.27;;;;;;;15.58;90.79;101619.88;5091834;28;20062;-64
2022/10/06 07:48:05;;;;;;;;;;;;;;;15.63;90.58;101614.88;5091145;28;20104;-65
2022/10/06 07:50:32;;;;;;;0.70;0.70;;;;;;;15.65;90.74;101620.94;5090040;28;19916;-64
2022/10/06 07:53:00;;;;;;;2.63;1.23;;;;;;;15.67;90.73;101614.34;5090804;28;20060;-64
2022/10/06 07:55:25;;;;;;;3.53;1.15;;;;;;;15.66;90.31;101622.59;5090452;28;20050;-65
2022/10/06 07:58:19;;;;;;;5.03;1.83;;;;;;;15.76;88.82;101617.00;5090468;28;20063;-65
2022/10/06 08:00:47;;;;;;;1.15;0.90;;;;;;;15.83;89.50;101621.50;5091084;28;20481;-65
2022/10/06 08:03:16;;;;;;;1.00;0.90;;;;;;;15.90;89.56;101627.00;5091817;28;20039;-65
2022/10/06 08:05:43;;;;;;;3.00;1.58;;;;;;;15.98;89.81;101632.38;5091653;28;20079;-64
2022/10/06 08:08:08;;;;;;;3.78;1.10;;;;;;;16.03;89.71;101629.97;5091459;28;20078;-65
2022/10/06 08:10:33;;;;;;;1.45;1.02;;;;;;;16.08;89.17;101629.47;5090932;28;20040;-64
2022/10/06 08:13:00;;;;;;;5.15;0.85;;;;;;;16.15;88.42;101638.50;5092002;28;20408;-65
2022/10/06 08:15:25;;;;;;;1.75;0.98;;;;;;;16.25;89.06;101639.13;5091720;28;20044;-65
2022/10/06 08:17:52;;;;;;;1.77;1.05;;;;;;;16.31;91.11;101635.72;5091448;28;20028;-64
2022/10/06 08:20:18;;;;;;;1.23;1.00;;;;;;;16.35;90.76;101634.34;5091031;28;20064;-64
2022/10/06 08:22:46;;;;;;;1.40;0.80;;;;;;;16.46;88.14;101633.94;5091849;28;20074;-63
2022/10/06 08:25:12;;;;;;;1.45;0.70;;;;;;;16.46;88.06;101639.31;5091760;28;20032;-64
2022/10/06 08:27:37;;;;;;;4.88;1.20;;;;;;;16.47;88.35;101641.00;5092271;28;20036;-66
2022/10/06 08:30:04;;;;;;;3.58;1.38;;;;;;;16.51;86.63;101642.31;5091895;28;20511;-65
2022/10/06 08:32:31;;;;;;;2.90;1.40;;;;;;;16.53;85.41;101642.13;5091982;28;20032;-65
2022/10/06 08:34:57;;;;;;;3.60;1.00;;;;;;;16.53;86.13;101640.28;5091919;28;20070;-65
2022/10/06 08:37:25;;;;;;;2.40;1.10;;;;;;;16.51;86.30;101645.00;5091728;28;20075;-65
2022/10/06 08:39:54;;;;;;;1.88;1.08;;;;;;;16.48;86.41;101650.72;5091659;28;20059;-65
2022/10/06 08:42:37;;;;;;;2.28;0.70;;;;;;;16.57;85.85;101656.91;5091416;28;20071;-65
2022/10/06 08:45:08;;;;;;;2.38;0.80;;;;;;;16.65;86.05;101658.69;5091976;28;20032;-66
2022/10/06 08:47:35;;;;;;;1.85;0.85;;;;;;;16.71;86.24;101661.53;5090196;28;20378;-64
2022/10/06 08:50:04;;;;;;;5.32;1.00;;;;;;;16.82;86.24;101668.34;5091497;28;20047;-66
2022/10/06 08:52:40;;;;;;;4.80;1.00;;;;;;;16.88;85.88;101670.31;5091713;28;20193;-66
2022/10/06 08:55:36;;;;;;;1.23;0.75;;;;;;;16.98;85.35;101670.91;5092727;28;20042;-66
2022/10/06 08:58:13;;;;;;;7.78;1.27;;;;;;;17.01;86.05;101667.00;5092722;28;20084;-66
2022/10/06 09:00:39;;;;;;;4.60;1.02;;;;;;;17.08;82.60;101671.53;5092046;28;20404;-66
2022/10/06 09:03:06;;;;;;;1.75;0.85;;;;;;;17.20;83.82;101673.75;5092136;28;20032;-65
2022/10/06 09:05:33;;;;;;;1.70;0.98;;;;;;;17.17;83.41;101683.03;5092368;28;20040;-64
2022/10/06 09:08:35;;;;;;;2.70;1.10;;;;;;;17.31;81.57;101682.22;5092672;28;20039;-65
2022/10/06 09:11:21;;;;;;;2.67;0.90;;;;;;;17.44;81.82;101687.00;5095140;28;20043;-64
2022/10/06 09:14:02;;;;;;;3.63;0.85;;;;;;;17.44;81.42;101687.00;5095466;28;20040;-65
2022/10/06 09:16:34;;;;;;;1.85;0.47;;;;;;;17.64;79.69;101692.69;5095146;28;20036;-65
2022/10/06 09:19:16;;;;;;;2.88;0.75;;;;;;;17.51;83.14;101693.31;5095191;28;20028;-65
2022/10/06 09:21:46;;;;;;;1.58;0.70;;;;;;;17.66;78.73;101690.63;5094733;28;20036;-65
2022/10/06 09:24:16;;;;;;;2.10;0.60;;;;;;;17.64;77.24;101693.50;5095302;28;20043;-65
2022/10/06 09:26:44;;;;;;;2.72;0.85;;;;;;;17.72;77.34;101697.19;5095149;28;20028;-65
2022/10/06 09:29:10;;;;;;;2.47;0.70;;;;;;;17.85;76.25;101700.88;5095082;28;20035;-66
2022/10/06 09:31:37;;;;;;;3.53;0.82;;;;;;;17.88;75.11;101705.09;5094545;28;20032;-65
2022/10/06 09:34:09;;;;;;;3.33;0.68;;;;;;;18.01;75.05;101709.84;5094664;28;20040;-64
2022/10/06 09:36:58;;;;;;;3.10;0.73;;;;;;;17.95;71.89;101697.94;5094667;28;20032;-65
2022/10/06 09:39:28;;;;;;;1.65;1.17;;;;;;;18.08;73.78;101699.97;5094776;28;20036;-65
2022/10/06 09:41:54;;;;;;;2.92;0.77;;;;;;;18.23;74.76;101702.63;5094478;28;20453;-65
2022/10/06 09:44:29;;;;;;;2.92;1.20;;;;;;;18.41;73.62;101703.06;5093364;28;20087;-65
2022/10/06 09:46:55;;;;;;;0.73;0.57;;;;;;;18.52;69.59;101699.03;5094540;28;20035;-65
2022/10/06 09:49:22;;;;;;;0.98;0.70;;;;;;;18.56;72.78;101697.63;5094482;28;20492;-65
2022/10/06 09:52:00;;;;;;;4.10;0.75;;;;;;;18.50;71.54;101691.13;5094146;28;20040;-65
2022/10/06 09:54:27;;;;;;;2.55;0.70;;;;;;;18.64;69.14;101692.94;5094228;28;20046;-64
2022/10/06 09:56:54;;;;;;;1.73;0.70;;;;;;;18.84;69.84;101685.09;5094306;28;20429;-65
2022/10/06 09:59:41;;;;;;;5.28;0.80;;;;;;;18.87;72.31;101700.06;5094215;28;20048;-65
2022/10/06 10:02:36;;;;;;;4.38;1.10;;;;;;;19.05;69.20;101697.75;5094147;28;20447;-65
2022/10/06 10:05:17;;;;;;;2.60;1.17;;;;;;;19.09;70.85;101701.72;5089676;28;20466;-64
2022/10/06 10:07:44;;;;;;;2.53;0.82;;;;;;;19.46;67.15;101706.00;5094513;28;20031;-65
2022/10/06 10:10:23;;;;;;;4.43;0.90;;;;;;;19.46;69.99;101706.00;5094396;28;20047;-65
2022/10/06 10:12:53;;;;;;;3.08;1.10;;;;;;;19.65;67.20;101699.09;5094497;28;20294;-65
2022/10/06 10:15:19;;;;;;;1.10;0.57;;;;;;;19.83;63.66;101700.44;5094358;28;20032;-65
2022/10/06 10:17:55;;;;;;;2.83;0.80;;;;;;;20.13;61.65;101695.59;5093846;28;20442;-65
2022/10/06 10:20:27;;;;;;;1.73;0.95;;;;;;;20.55;62.89;101695.38;5093260;28;20147;-66
2022/10/06 10:22:55;;;;;;;1.88;0.90;;;;;;;20.73;58.89;101685.81;5094100;28;20356;-65
2022/10/06 10:26:02;;;;;;;5.20;0.80;;;;;;;20.97;57.20;101687.94;5094583;28;20028;-65
2022/10/06 10:28:54;;;;;;;2.88;0.80;;;;;;;21.06;57.31;101688.56;5083104;28;20401;-65
2022/10/06 10:31:46;;;;;;;3.47;1.00;;;;;;;20.81;57.42;101689.19;5093523;28;20032;-66
2022/10/06 10:34:37;;;;;;;3.80;1.17;;;;;;;20.82;58.59;101685.44;5094823;28;20031;-64
2022/10/06 10:37:14;;;;;;;1.30;0.70;;;;;;;20.83;60.37;101694.41;5093351;28;20036;-64
2022/10/06 10:39:50;;;;;;;0.77;0.60;;;;;;;20.46;62.46;101696.59;5093394;28;20428;-64
2022/10/06 10:42:31;;;;;;;5.30;1.13;;;;;;;19.96;65.09;101695.94;5093215;28;20565;-65
2022/10/06 10:45:03;;;;;;;2.03;1.02;;;;;;;19.72;65.25;101699.13;5093271;28;20047;-65
2022/10/06 10:47:48;;;;;;;3.53;0.82;;;;;;;19.61;63.63;101703.22;5093086;28;20043;-64
2022/10/06 10:50:30;;;;;;;1.55;0.88;;;;;;;19.48;64.86;101708.50;5092912;28;20493;-65
2022/10/06 10:53:38;;;;;;;1.25;0.95;;;;;;;19.10;68.31;101706.09;5084544;28;20041;-63
2022/10/06 10:56:08;;;;;;;3.88;1.17;;;;;;;19.00;66.47;101689.41;5091876;28;20070;-65
2022/10/06 10:58:37;;;;;;;1.98;0.60;;;;;;;18.89;68.88;101698.00;5093059;28;20047;-65
2022/10/06 11:01:31;;;;;;;2.53;0.90;;;;;;;18.86;68.98;101688.44;5092531;28;20036;-63
2022/10/06 11:03:57;;;;;;;2.22;1.10;;;;;;;18.79;68.89;101690.25;5091166;28;20450;-64
2022/10/06 11:06:38;;;;;;;2.50;0.80;;;;;;;18.82;69.51;101695.25;5093600;28;20052;-64
2022/10/06 11:09:14;;;;;;;4.28;0.93;;;;;;;18.65;67.42;101688.41;5103871;28;20459;-65
2022/10/06 11:12:02;;;;;;;0.55;0.52;;;;;;;18.74;69.13;101684.59;5096135;28;20362;-64
2022/10/06 11:14:40;;;;;;;1.98;0.90;;;;;;;18.85;68.53;101694.03;5084782;28;20043;-65
2022/10/06 11:17:28;;;;;;;4.13;1.30;;;;;;;18.94;68.58;101684.78;5098714;28;20024;-64
2022/10/06 11:20:10;;;;;;;1.83;0.90;;;;;;;18.93;70.36;101688.50;5090057;28;20028;-64
2022/10/06 11:22:58;;;;;;;1.52;0.68;;;;;;;19.05;70.52;101686.13;5087229;28;20093;-64
2022/10/06 11:25:31;;;;;;;2.08;1.10;;;;;;;19.23;69.53;101695.44;5090082;28;20057;-64
2022/10/06 11:28:12;;;;;;;2.00;0.80;;;;;;;19.65;70.16;101690.16;5094290;28;20034;-65
2022/10/06 11:31:19;;;;;;;1.70;0.70;;;;;;;19.97;66.59;101692.22;5091032;28;20501;-63
2022/10/06 11:33:51;;;;;;;4.63;1.00;;;;;;;20.26;64.38;101684.84;5090551;28;20135;-64
2022/10/06 11:36:40;;;;;;;2.05;0.98;;;;;;;20.24;62.92;101685.03;5091817;28;20495;-64
2022/10/06 11:39:15;;;;;;;0.75;0.70;;;;;;;20.41;62.54;101684.66;5089565;28;20031;-63
2022/10/06 11:41:48;;;;;;;1.70;0.90;;;;;;;20.33;59.87;101686.53;5095818;28;20028;-63
2022/10/06 11:44:40;;;;;;;1.75;0.80;;;;;;;20.52;59.18;101678.69;5093804;28;20032;-63
2022/10/06 11:47:32;;;;;;;2.22;1.00;;;;;;;21.27;56.32;101677.53;5091496;28;20054;-64
2022/10/06 11:49:58;;;;;;;2.88;0.70;;;;;;;21.80;54.92;101669.34;5090201;28;20036;-62
2022/10/06 11:52:23;;;;;;;2.25;1.00;;;;;;;22.33;53.05;101677.31;5095692;28;20043;-65
2022/10/06 11:54:52;;;;;;;2.45;0.77;;;;;;;22.93;48.54;101666.94;5091506;28;20040;-64
2022/10/06 11:57:23;;;;;;;2.13;0.85;;;;;;;23.42;47.92;101670.69;5093710;28;20370;-63
2022/10/06 11:59:50;;;;;;;2.67;0.60;;;;;;;24.22;46.59;101667.94;5091527;28;20043;-64
2022/10/06 12:02:33;;;;;;;3.13;1.05;;;;;;;24.33;47.10;101669.06;5091966;28;20040;-65
2022/10/06 12:05:08;;;;;;;3.05;0.85;;;;;;;23.99;46.41;101660.47;5094329;28;20395;-65
2022/10/06 12:07:52;;;;;;;2.90;0.70;;;;;;;23.93;48.02;101658.69;5090615;28;20056;-65
2022/10/06 12:10:26;;;;;;;1.40;0.70;;;;;;;23.62;46.32;101654.22;5094317;28;20408;-65
2022/10/06 12:12:53;;;;;;;2.42;0.88;;;;;;;23.01;48.82;101652.22;5091177;28;20115;-65
2022/10/06 12:15:26;;;;;;;0.68;0.60;;;;;;;23.15;48.17;101653.81;5093332;28;20057;-64
2022/10/06 12:18:16;;;;;;;2.10;0.90;;;;;;;23.92;46.66;101648.81;5091214;28;20038;-65
2022/10/06 12:21:09;;;;;;;3.40;1.02;;;;;;;23.27;47.63;101652.00;5091310;28;20439;-65
2022/10/06 12:23:50;;;;;;;2.97;1.02;;;;;;;22.91;48.97;101641.88;5091151;28;20495;-64
2022/10/06 12:26:16;;;;;;;2.13;1.00;;;;;;;22.86;50.13;101636.25;5091200;28;20077;-64
2022/10/06 12:28:58;;;;;;;0.82;0.65;;;;;;;22.42;48.50;101638.00;5091166;28;20028;-65
2022/10/06 12:31:43;;;;;;;1.13;0.90;;;;;;;21.97;49.09;101639.03;5090579;28;20499;-65
2022/10/06 12:34:46;;;;;;;3.10;0.88;;;;;;;21.90;51.97;101634.47;5088938;28;20051;-64
2022/10/06 12:37:30;;;;;;;1.38;0.80;;;;;;;21.26;53.32;101629.81;5089495;28;20481;-65
2022/10/06 12:40:33;;;;;;;0.90;0.70;;;;;;;21.25;53.30;101636.25;5090838;28;20051;-65
2022/10/06 12:43:13;;;;;;;2.15;0.75;;;;;;;21.25;58.44;101627.28;5092108;28;20032;-64
2022/10/06 12:45:46;;;;;;;3.40;0.70;;;;;;;20.52;57.38;101628.13;5097287;28;20115;-65
2022/10/06 12:48:25;;;;;;;1.38;0.77;;;;;;;20.64;56.74;101622.09;5095475;28;20044;-64
2022/10/06 12:51:00;;;;;;;1.15;0.82;;;;;;;20.60;55.43;101616.25;5094594;28;20040;-64
2022/10/06 12:53:40;;;;;;;2.03;0.80;;;;;;;20.20;57.83;101621.53;5090393;28;20106;-64
2022/10/06 12:56:27;;;;;;;2.40;0.80;;;;;;;20.26;58.26;101622.59;5097245;28;20035;-64
2022/10/06 12:58:52;;;;;;;2.22;1.00;;;;;;;20.26;59.81;101619.91;5092184;28;20129;-65
2022/10/06 13:01:20;;;;;;;2.80;0.80;;;;;;;20.74;61.60;101622.53;5094688;28;20141;-65
2022/10/06 13:03:51;;;;;;;4.18;1.00;;;;;;;21.82;57.98;101620.31;5097679;28;20036;-63
2022/10/06 13:06:22;;;;;;;2.00;1.05;;;;;;;22.47;52.14;101615.63;5095412;28;20038;-65
2022/10/06 13:09:05;;;;;;;3.38;1.02;;;;;;;22.71;51.86;101614.00;5094381;28;20047;-62
2022/10/06 13:11:31;;;;;;;3.83;1.10;;;;;;;22.63;48.61;101606.13;5090587;28;20039;-65
2022/10/06 13:14:06;;;;;;;2.70;0.88;;;;;;;21.90;53.61;101612.75;5094364;28;20040;-65
2022/10/06 13:16:38;;;;;;;1.83;0.80;;;;;;;22.06;53.60;101614.16;5093705;28;20081;-65
2022/10/06 13:19:05;;;;;;;3.03;0.70;;;;;;;21.57;54.97;101612.88;5095094;28;20060;-65
2022/10/06 13:21:32;;;;;;;1.52;0.60;;;;;;;21.15;56.06;101616.91;5093563;28;20143;-65
2022/10/06 13:23:57;;;;;;;2.13;1.20;;;;;;;20.84;55.40;101612.94;5094182;28;20119;-65
2022/10/06 13:26:33;;;;;;;1.17;0.60;;;;;;;20.86;56.02;101602.75;5096871;28;20115;-65
2022/10/06 13:28:59;;;;;;;1.00;0.60;;;;;;;20.80;56.51;101606.28;5094622;28;20041;-65
2022/10/06 13:31:35;;;;;;;1.67;0.77;;;;;;;20.82;57.14;101603.38;5094477;28;20378;-65
2022/10/06 13:34:09;;;;;;;1.42;0.80;;;;;;;20.89;55.04;101601.50;5096775;28;20082;-64
2022/10/06 13:36:37;;;;;;;0.68;0.68;;;;;;;21.13;54.38;101605.44;5094755;28;20134;-63
2022/10/06 13:39:24;;;;;;;0.75;0.40;;;;;;;21.32;54.52;101610.03;5094080;28;20040;-64
2022/10/06 13:42:02;;;;;;;1.65;0.47;;;;;;;21.40;54.61;101601.69;5093379;28;20143;-64
2022/10/06 13:44:30;;;;;;;8.43;1.20;;;;;;;21.43;53.95;101600.41;5092717;28;20043;-65
2022/10/06 13:47:01;;;;;;;0.60;0.50;;;;;;;21.37;54.32;101602.09;5094368;28;20040;-65
2022/10/06 13:49:43;;;;;;;1.20;0.70;;;;;;;21.42;56.25;101603.34;5095096;28;20385;-64
2022/10/06 13:52:20;;;;;;;1.08;0.80;;;;;;;21.56;56.46;101596.84;5090549;28;20433;-64
2022/10/06 13:54:57;;;;;;;1.20;0.70;;;;;;;21.21;57.70;101594.38;5091741;28;20027;-65
2022/10/06 13:57:39;;;;;;;1.38;0.75;;;;;;;21.01;56.54;101602.53;5093640;28;20050;-63
2022/10/06 14:00:29;;;;;;;2.13;0.70;;;;;;;21.11;57.20;101597.50;5094565;28;20365;-65
2022/10/06 14:03:03;;;;;;;2.20;1.23;;;;;;;20.82;59.65;101596.09;5093328;28;20051;-65
2022/10/06 14:05:43;;;;;;;4.78;1.00;;;;;;;20.63;63.28;101594.19;5089379;28;20438;-65
2022/10/06 14:08:08;;;;;;;1.85;0.73;;;;;;;20.47;61.77;101591.88;5095531;28;20476;-63
2022/10/06 14:10:40;;;;;;;1.85;1.15;;;;;;;20.38;60.30;101595.78;5093796;28;20096;-64
2022/10/06 14:13:27;;;;;;;1.88;0.65;;;;;;;20.09;59.01;101591.56;5094286;28;20036;-65
2022/10/06 14:16:04;;;;;;;2.28;0.63;;;;;;;20.03;57.09;101590.50;5092572;28;20036;-65
2022/10/06 14:19:14;;;;;;;0.50;0.40;;;;;;;20.19;57.73;101592.00;5093274;28;20068;-65
2022/10/06 14:21:40;;;;;;;2.20;0.73;;;;;;;19.97;59.29;101589.44;5095487;28;20588;-65
2022/10/06 14:24:15;;;;;;;3.17;0.80;;;;;;;20.08;58.36;101596.13;5093676;28;20057;-65
2022/10/06 14:26:45;;;;;;;0.88;0.30;;;;;;;20.09;56.88;101589.69;5096246;28;20404;-65
2022/10/06 14:29:12;;;;;;;1.98;0.50;;;;;;;20.09;56.59;101581.59;5093795;28;20031;-64
2022/10/06 14:31:38;;;;;;;0.98;0.55;;;;;;;19.98;58.79;101587.56;5092610;28;20028;-65
2022/10/06 14:34:04;;;;;;;1.40;0.88;;;;;;;19.99;55.74;101578.41;5096815;28;20039;-64
2022/10/06 14:36:35;;;;;;;1.08;0.70;;;;;;;19.92;56.36;101574.88;5094066;28;20047;-64
2022/10/06 14:39:03;;;;;;;0.80;0.63;;;;;;;19.86;56.01;101571.09;5091451;28;20051;-64
2022/10/06 14:41:29;;;;;;;0.55;0.40;;;;;;;19.83;56.78;101576.09;5093146;28;20036;-63
2022/10/06 14:43:56;;;;;;;2.58;0.52;;;;;;;19.72;54.63;101569.38;5093162;28;20101;-64
2022/10/06 14:46:23;;;;;;;3.88;0.70;;;;;;;19.65;55.50;101566.66;5091418;28;20479;-63
2022/10/06 14:48:50;;;;;;;2.60;0.85;;;;;;;19.63;55.91;101557.91;5093174;28;20036;-64
2022/10/06 14:51:17;;;;;;;1.45;0.63;;;;;;;19.71;57.27;101562.31;5092758;28;20044;-63
2022/10/06 14:53:42;;;;;;;1.85;0.65;;;;;;;19.57;56.89;101558.69;5093007;28;20401;-64
2022/10/06 14:56:10;;;;;;;2.30;0.60;;;;;;;19.55;58.19;101558.03;5093025;28;20074;-64
2022/10/06 14:58:37;;;;;;;1.27;0.60;;;;;;;19.57;59.19;101564.09;5092952;28;20032;-63
2022/10/06 15:01:07;;;;;;;0.88;0.55;;;;;;;19.55;58.64;101559.91;5092579;28;20042;-64
2022/10/06 15:03:35;;;;;;;2.58;0.80;;;;;;;19.53;60.14;101560.09;5093020;28;20032;-64
2022/10/06 15:08:55;;;;;;;2.40;0.70;;;;;;;19.48;57.53;101563.41;5092831;28;20036;-64
2022/10/06 15:11:23;;;;;;;4.72;2.20;;;;;;;19.38;55.64;101564.81;5092348;28;20070;-64
2022/10/06 15:13:49;;;;;;;1.75;1.63;;;;;;;19.36;56.93;101564.16;5092754;28;20117;-63
2022/10/06 15:16:15;;;;;;;1.55;0.55;;;;;;;19.29;55.21;101564.13;5092790;28;20028;-63
2022/10/06 15:18:41;;;;;;;1.90;0.63;;;;;;;19.30;55.42;101559.56;5092773;28;20055;-64
2022/10/06 15:21:08;;;;;;;2.63;0.60;;;;;;;19.26;55.91;101551.03;5092355;28;20082;-63
2022/10/06 15:23:34;;;;;;;1.05;0.65;;;;;;;19.23;57.13;101546.88;5092773;28;20119;-64
2022/10/06 15:29:02;;;;;;;1.20;0.90;;;;;;;19.08;56.31;101550.69;5092447;28;20032;-51
2022/10/06 15:31:31;;;;;;;0.50;0.50;;;;;;;19.03;56.75;101547.75;5091871;28;20127;-55
2022/10/06 15:33:59;;;;;;;3.83;0.80;;;;;;;18.93;57.17;101546.25;5092313;28;20090;-56
2022/10/06 15:36:27;;;;;;;1.50;0.82;;;;;;;18.85;56.76;101541.00;5092199;28;20047;-56
2022/10/06 15:38:54;;;;;;;2.42;1.10;;;;;;;18.76;57.82;101546.72;5092137;28;20040;-57
2022/10/06 15:41:20;;;;;;;2.17;0.50;;;;;;;18.67;58.10;101544.19;5091856;28;20032;-61
2022/10/06 15:43:56;;;;;;;4.57;3.17;;;;;;;18.56;60.50;101543.84;5092141;28;20042;-62
2022/10/06 15:46:42;;;;;;;3.67;1.63;;;;;;;18.62;61.09;101541.19;5092153;28;20306;-63
2022/10/06 15:49:09;;;;;;;1.90;1.10;;;;;;;18.54;62.42;101538.63;5091651;28;20535;-63
2022/10/06 15:51:47;;;;;;;1.45;0.82;;;;;;;18.49;61.96;101537.56;5091655;28;20042;-64
2022/10/06 15:54:24;;;;;;;1.10;0.57;;;;;;;18.43;61.70;101537.28;5091961;28;20381;-63
2022/10/06 15:56:52;;;;;;;2.13;1.15;;;;;;;18.40;62.07;101532.28;5091806;28;20053;-63
2022/10/06 15:59:22;;;;;;;1.38;0.85;;;;;;;18.39;62.92;101536.03;5091972;28;20570;-63
2022/10/06 16:01:54;;;;;;;2.08;1.23;;;;;;;18.35;64.25;101534.72;5091916;28;20404;-63
2022/10/06 16:04:47;;;;;;;2.65;1.13;;;;;;;18.23;64.22;101538.13;5091963;28;20066;-63
2022/10/06 16:07:15;;;;;;;3.83;0.90;;;;;;;18.24;64.17;101537.09;5091204;28;20469;-64
2022/10/06 16:09:43;;;;;;;1.95;0.80;;;;;;;18.19;64.51;101537.66;5100028;28;20043;-63
2022/10/06 16:12:11;;;;;;;1.88;1.00;;;;;;;18.16;65.76;101543.47;5092032;28;20041;-63
2022/10/06 16:14:36;;;;;;;2.00;1.20;;;;;;;18.10;67.52;101541.53;5091779;28;20396;-61
2022/10/06 16:17:04;;;;;;;1.08;0.80;;;;;;;18.07;67.81;101536.53;5091476;28;20044;-63
2022/10/06 16:19:30;;;;;;;1.70;0.50;;;;;;;18.03;68.39;101535.22;5091749;28;20036;-64
2022/10/06 16:21:57;;;;;;;1.52;1.00;;;;;;;17.97;68.65;101536.81;5091162;28;20020;-64
2022/10/06 16:24:24;;;;;;;1.20;0.80;;;;;;;17.93;68.90;101532.88;5091545;28;20071;-61
2022/10/06 16:26:51;;;;;;;3.35;1.10;;;;;;;17.93;69.74;101534.69;5091386;28;20275;-64